Diamond, Oregon
Current Conditions -  °F | °C
As of 4:26 AM on Thursday 18 Dec 2014 (Local Time) from KBNO Reporting Station
Moderate Fog Moderate Fog  
Wind Chill: 29°   Ceiling: 300
Heat Index: 29°   Visibility: 0.5mi
Dew Point: 28°   Wind: 0mph
Humidity: 96%   Direction: NA
Pressure: 30.02"   Gusts: NA
Location:  43.01°N, 118.66°W
Report Text: KBNO 181226Z AUTO 00000KT 1/2SM FZFG BKN003 BKN008 BKN024 M02/M02 A3002 RMK AO2 T10171022
Loading
Personal Weather Stations






























Interactive Weather Map New forecast layout! Learn more

10-Day Weather Forecast

Advertisements
Track Severe Weather on mobile